createdAt,value
2019-05-30T00:01:56.492Z,4.40
2019-05-30T00:04:26.449Z,4.80
2019-05-30T00:07:14.903Z,4.90
2019-05-30T00:09:45.243Z,4.33
2019-05-30T00:12:19.651Z,4.53
2019-05-30T00:14:56.635Z,4.40
2019-05-30T00:17:27.781Z,4.90
2019-05-30T00:19:59.132Z,4.23
2019-05-30T00:22:29.653Z,4.13
2019-05-30T00:25:00.067Z,4.20
2019-05-30T00:27:30.490Z,4.20
2019-05-30T00:30:01.385Z,3.47
2019-05-30T00:32:32.469Z,4.73
2019-05-30T00:35:03.758Z,4.63
2019-05-30T00:37:36.700Z,3.73
2019-05-30T00:40:10.300Z,3.60
2019-05-30T00:42:40.010Z,3.77
2019-05-30T00:45:21.051Z,3.97
2019-05-30T00:47:42.808Z,3.70
2019-05-30T00:50:12.920Z,3.40
2019-05-30T00:52:43.060Z,3.73
2019-05-30T00:55:12.756Z,4.70
2019-05-30T00:57:42.681Z,4.43
2019-05-30T01:00:12.686Z,4.30
2019-05-30T01:02:42.525Z,4.00
2019-05-30T01:05:12.409Z,4.33
2019-05-30T01:07:42.254Z,4.30
2019-05-30T01:10:12.773Z,4.50
2019-05-30T01:12:42.459Z,4.27
2019-05-30T01:15:12.583Z,4.50
2019-05-30T01:17:42.611Z,3.97
2019-05-30T01:20:12.511Z,4.10
2019-05-30T01:22:42.630Z,4.73
2019-05-30T01:25:12.542Z,4.47
2019-05-30T01:27:42.689Z,4.47
2019-05-30T01:30:12.898Z,3.60
2019-05-30T01:32:42.896Z,4.37
2019-05-30T01:35:12.815Z,5.20
2019-05-30T01:37:43.151Z,4.73
2019-05-30T01:40:13.257Z,3.47
2019-05-30T01:42:43.065Z,3.90
2019-05-30T01:45:12.889Z,3.70
2019-05-30T01:47:42.812Z,3.50
2019-05-30T01:50:13.023Z,3.53
2019-05-30T01:52:43.240Z,3.10
2019-05-30T01:55:13.466Z,4.07
2019-05-30T01:57:43.486Z,3.70
2019-05-30T02:00:20.612Z,3.60
2019-05-30T02:02:44.955Z,4.33
2019-05-30T02:05:15.269Z,3.60
2019-05-30T02:07:45.602Z,3.83
2019-05-30T02:10:15.812Z,3.73
2019-05-30T02:12:46.029Z,3.10
2019-05-30T02:15:15.843Z,3.87
2019-05-30T02:17:45.865Z,3.30
2019-05-30T02:20:16.289Z,3.50
2019-05-30T02:22:46.196Z,4.27
2019-05-30T02:25:16.220Z,3.63
2019-05-30T02:27:46.333Z,3.80
2019-05-30T02:30:16.888Z,3.37
2019-05-30T02:32:47.102Z,3.77
2019-05-30T02:35:17.019Z,3.73
2019-05-30T02:37:46.707Z,3.83
2019-05-30T02:40:17.562Z,3.23
2019-05-30T02:42:47.560Z,3.23
2019-05-30T02:45:17.479Z,3.10
2019-05-30T02:47:49.540Z,3.93
2019-05-30T02:50:20.580Z,3.40
2019-05-30T02:52:50.286Z,4.00
2019-05-30T02:55:20.411Z,3.43
2019-05-30T02:57:50.115Z,3.60
2019-05-30T03:00:23.308Z,4.27
2019-05-30T03:02:53.432Z,3.50
2019-05-30T03:05:22.928Z,3.50
2019-05-30T03:07:53.287Z,5.30
2019-05-30T03:10:23.591Z,3.70
2019-05-30T03:12:53.625Z,3.60
2019-05-30T03:15:23.624Z,4.13
2019-05-30T03:17:53.531Z,3.33
2019-05-30T03:20:23.695Z,3.23
2019-05-30T03:22:53.888Z,3.23
2019-05-30T03:25:23.469Z,3.73
2019-05-30T03:27:53.501Z,3.77
2019-05-30T03:30:28.460Z,3.70
2019-05-30T03:33:14.415Z,4.73
2019-05-30T03:35:30.587Z,3.43
2019-05-30T03:37:58.264Z,4.10
2019-05-30T03:40:47.127Z,4.37
2019-05-30T03:43:17.449Z,3.87
2019-05-30T03:45:47.598Z,3.93
2019-05-30T03:48:19.426Z,4.10
2019-05-30T03:50:51.012Z,3.80
2019-05-30T03:53:21.436Z,3.97
2019-05-30T03:55:54.286Z,3.97
2019-05-30T03:58:30.454Z,3.37
2019-05-30T04:01:02.529Z,3.50
2019-05-30T04:03:44.007Z,3.90
2019-05-30T04:06:16.613Z,3.67
2019-05-30T04:08:53.361Z,3.90
2019-05-30T04:11:24.713Z,3.67
2019-05-30T04:13:56.763Z,3.87
2019-05-30T04:16:26.901Z,4.67
2019-05-30T04:18:56.914Z,4.07
2019-05-30T04:21:26.913Z,4.43
2019-05-30T04:23:56.739Z,4.20
2019-05-30T04:26:27.260Z,3.63
2019-05-30T04:28:56.967Z,3.80
2019-05-30T04:31:26.576Z,4.47
2019-05-30T04:33:56.610Z,4.10
2019-05-30T04:36:26.715Z,3.70
2019-05-30T04:38:56.617Z,3.83
2019-05-30T04:41:26.639Z,3.50
2019-05-30T04:43:56.568Z,4.30
2019-05-30T04:46:45.327Z,4.07
2019-05-30T04:49:16.809Z,4.40
2019-05-30T04:51:51.687Z,4.20
2019-05-30T04:54:21.900Z,3.53
2019-05-30T04:56:52.040Z,3.27
2019-05-30T04:59:24.821Z,4.10
2019-05-30T05:01:57.301Z,4.20
2019-05-30T05:04:32.830Z,4.13
2019-05-30T05:07:06.538Z,4.87
2019-05-30T05:09:51.619Z,3.83
2019-05-30T05:12:30.224Z,3.20
2019-05-30T05:15:25.893Z,3.93
2019-05-30T05:24:59.283Z,2.70
2019-05-30T05:27:40.153Z,3.30
2019-05-30T05:30:22.593Z,3.23
2019-05-30T05:32:53.704Z,2.87
2019-05-30T05:45:05.559Z,3.07
2019-05-30T05:47:38.342Z,2.77
2019-05-30T05:50:11.115Z,2.73
2019-05-30T05:52:45.439Z,2.17
2019-05-30T05:55:16.719Z,2.20
2019-05-30T05:57:46.719Z,2.80
2019-05-30T06:00:17.041Z,1.80
2019-05-30T06:02:47.160Z,1.90
2019-05-30T06:05:17.810Z,2.20
2019-05-30T06:07:48.193Z,2.10
2019-05-30T06:10:19.544Z,1.83
2019-05-30T06:12:49.558Z,1.80
2019-05-30T06:15:20.814Z,2.13
2019-05-30T06:18:00.046Z,1.77
2019-05-30T06:20:39.365Z,2.00
2019-05-30T06:23:19.410Z,1.90
2019-05-30T06:25:56.086Z,2.00
2019-05-30T06:28:35.635Z,2.10
2019-05-30T06:31:09.749Z,2.03
2019-05-30T06:33:39.577Z,1.90
2019-05-30T06:36:09.272Z,1.97
2019-05-30T06:38:39.491Z,1.90
2019-05-30T06:41:09.201Z,1.60
2019-05-30T06:43:39.038Z,2.60
2019-05-30T06:46:09.039Z,2.20
2019-05-30T06:48:39.285Z,2.57
2019-05-30T06:51:09.884Z,2.20
2019-05-30T06:53:39.890Z,1.93
2019-05-30T06:56:09.813Z,2.17
2019-05-30T06:58:48.525Z,2.00
2019-05-30T07:01:14.863Z,1.93
2019-05-30T07:03:44.913Z,2.10
2019-05-30T07:06:15.242Z,1.93
2019-05-30T07:08:45.531Z,1.83
2019-05-30T07:11:15.658Z,2.17
2019-05-30T07:13:45.365Z,1.80
2019-05-30T07:16:15.576Z,1.80
2019-05-30T07:18:45.895Z,2.00
2019-05-30T07:21:19.659Z,1.63
2019-05-30T07:23:50.465Z,1.93
2019-05-30T07:26:29.906Z,2.43
2019-05-30T07:29:00.785Z,2.57
2019-05-30T07:31:32.133Z,1.80
2019-05-30T07:34:02.176Z,1.80
2019-05-30T07:36:32.307Z,2.50
2019-05-30T07:39:03.551Z,1.50
2019-05-30T07:41:33.381Z,1.90
2019-05-30T07:44:03.166Z,2.00
2019-05-30T07:46:33.190Z,1.80
2019-05-30T07:49:03.199Z,2.20
2019-05-30T07:51:33.012Z,1.60
2019-05-30T07:54:02.914Z,1.60
2019-05-30T07:56:33.451Z,1.50
2019-05-30T07:59:03.475Z,2.23
2019-05-30T08:01:33.187Z,1.63
2019-05-30T08:04:03.193Z,1.97
2019-05-30T08:06:33.843Z,1.80
2019-05-30T08:09:04.563Z,1.40
2019-05-30T08:11:35.053Z,1.70
2019-05-30T08:14:05.215Z,1.73
2019-05-30T08:16:35.513Z,1.50
2019-05-30T08:19:06.164Z,1.30
2019-05-30T08:21:36.357Z,1.27
2019-05-30T08:24:06.195Z,1.30
2019-05-30T08:26:36.427Z,1.57
2019-05-30T08:29:06.537Z,1.50
2019-05-30T08:31:36.892Z,1.87
2019-05-30T08:34:06.881Z,1.97
2019-05-30T08:36:37.114Z,1.97
2019-05-30T08:39:08.103Z,1.50
2019-05-30T08:41:41.235Z,1.40
2019-05-30T08:44:11.251Z,1.60
2019-05-30T08:46:40.965Z,1.83
2019-05-30T08:49:11.305Z,1.60
2019-05-30T08:51:41.294Z,1.60
2019-05-30T08:54:13.713Z,1.40
2019-05-30T08:56:43.071Z,1.50
2019-05-30T08:59:13.291Z,1.30
2019-05-30T09:01:43.930Z,1.33
2019-05-30T09:04:14.038Z,1.70
2019-05-30T09:06:44.253Z,1.43
2019-05-30T09:09:14.480Z,1.47
2019-05-30T09:11:44.517Z,1.93
2019-05-30T09:14:15.026Z,1.60
2019-05-30T09:16:46.530Z,1.50
2019-05-30T09:19:17.011Z,1.30
2019-05-30T09:21:47.487Z,1.50
2019-05-30T09:24:17.569Z,1.40
2019-05-30T09:26:50.035Z,1.50
2019-05-30T09:29:18.814Z,1.33
2019-05-30T09:31:48.828Z,1.40
2019-05-30T09:34:18.941Z,1.20
2019-05-30T09:36:49.211Z,1.63
2019-05-30T09:39:18.971Z,1.77
2019-05-30T09:41:49.833Z,1.50
2019-05-30T09:44:19.730Z,1.20
2019-05-30T09:46:50.546Z,1.60
2019-05-30T09:49:20.792Z,1.50
2019-05-30T09:51:51.191Z,1.60
2019-05-30T09:54:21.846Z,1.60
2019-05-30T09:56:53.113Z,1.90
2019-05-30T09:59:24.132Z,1.50
2019-05-30T10:01:54.050Z,1.37
2019-05-30T10:04:23.857Z,1.10
2019-05-30T10:06:53.873Z,1.33
2019-05-30T10:09:23.687Z,1.10
2019-05-30T10:11:53.626Z,1.30
2019-05-30T10:14:23.413Z,1.40
2019-05-30T10:16:56.471Z,2.00
2019-05-30T10:19:25.288Z,1.50
2019-05-30T10:21:55.615Z,1.43
2019-05-30T10:24:25.831Z,1.33
2019-05-30T10:26:57.308Z,1.40
2019-05-30T10:29:27.410Z,1.70
2019-05-30T10:31:57.060Z,1.37
2019-05-30T10:34:27.437Z,1.40
2019-05-30T10:36:57.663Z,1.80
2019-05-30T10:39:28.195Z,2.30
2019-05-30T10:41:58.307Z,1.73
2019-05-30T10:44:31.495Z,1.53
2019-05-30T10:47:01.412Z,1.40
2019-05-30T10:49:37.883Z,2.17
2019-05-30T10:52:41.283Z,1.77
2019-05-30T10:55:10.575Z,1.50
2019-05-30T10:57:40.695Z,1.30
2019-05-30T11:00:13.680Z,1.77
2019-05-30T11:02:47.854Z,1.50
2019-05-30T11:05:20.036Z,1.40
2019-05-30T11:08:05.556Z,1.40
2019-05-30T11:10:36.278Z,1.67
2019-05-30T11:13:09.778Z,1.40
2019-05-30T11:15:45.522Z,1.60
2019-05-30T11:18:16.798Z,1.80
2019-05-30T11:20:49.891Z,1.40
2019-05-30T11:23:20.436Z,1.70
2019-05-30T11:25:50.498Z,1.20
2019-05-30T11:28:21.450Z,1.50
2019-05-30T11:30:52.665Z,1.50
2019-05-30T11:33:23.522Z,1.67
2019-05-30T11:35:55.050Z,1.50
2019-05-30T11:38:25.812Z,1.43
2019-05-30T11:40:57.455Z,1.60
2019-05-30T11:43:27.487Z,1.37
2019-05-30T11:45:59.749Z,1.80
2019-05-30T11:48:29.873Z,1.10
2019-05-30T11:51:02.446Z,1.57
2019-05-30T11:53:33.493Z,1.80
2019-05-30T11:56:03.709Z,1.33
2019-05-30T11:58:33.825Z,1.63
2019-05-30T12:01:04.049Z,1.70
2019-05-30T12:03:33.958Z,1.73
2019-05-30T12:06:03.875Z,1.47
2019-05-30T12:08:33.587Z,1.07
2019-05-30T12:11:04.020Z,1.57
2019-05-30T12:13:33.525Z,1.50
2019-05-30T12:16:03.537Z,1.50
2019-05-30T12:18:33.760Z,1.77
2019-05-30T12:21:04.495Z,1.47
2019-05-30T12:23:34.813Z,2.07
2019-05-30T12:26:05.448Z,1.53
2019-05-30T12:28:35.665Z,2.00
2019-05-30T12:31:06.793Z,1.50
2019-05-30T12:33:37.245Z,1.23
2019-05-30T12:36:08.273Z,1.80
2019-05-30T12:38:38.292Z,2.30
2019-05-30T12:41:10.255Z,1.60
2019-05-30T12:43:41.101Z,1.83
2019-05-30T12:46:11.514Z,1.70
2019-05-30T12:48:41.638Z,1.67
2019-05-30T12:51:12.058Z,1.33
2019-05-30T12:53:42.386Z,1.13
2019-05-30T12:56:13.114Z,1.13
2019-05-30T12:58:43.441Z,1.50
2019-05-30T13:01:13.159Z,1.53
2019-05-30T13:03:43.164Z,1.73
2019-05-30T13:06:13.184Z,1.30
2019-05-30T13:08:42.997Z,1.53
2019-05-30T13:11:13.218Z,1.70
2019-05-30T13:13:43.441Z,1.70
2019-05-30T13:16:14.475Z,1.40
2019-05-30T13:18:44.899Z,1.30
2019-05-30T13:21:33.559Z,1.27
2019-05-30T13:24:03.977Z,1.87
2019-05-30T13:26:35.329Z,1.30
2019-05-30T13:29:06.451Z,1.43
2019-05-30T13:31:36.892Z,1.30
2019-05-30T13:34:15.417Z,1.47
2019-05-30T13:36:45.538Z,1.60
2019-05-30T13:39:22.104Z,2.23
2019-05-30T13:41:52.325Z,1.80
2019-05-30T13:44:22.357Z,1.83
2019-05-30T13:46:52.677Z,1.90
2019-05-30T13:49:22.588Z,1.60
2019-05-30T13:51:52.494Z,1.40
2019-05-30T13:54:22.914Z,1.70
2019-05-30T13:56:56.528Z,2.10
2019-05-30T13:59:26.434Z,1.60
2019-05-30T14:02:03.976Z,1.27
2019-05-30T14:04:34.663Z,1.63
2019-05-30T14:07:04.475Z,1.83
2019-05-30T14:09:39.615Z,1.37
2019-05-30T14:12:10.684Z,1.50
2019-05-30T14:14:40.879Z,2.00
2019-05-30T14:17:13.633Z,1.93
2019-05-30T14:19:44.697Z,1.50
2019-05-30T14:22:15.533Z,1.70
2019-05-30T14:24:45.446Z,1.67
2019-05-30T14:27:15.557Z,2.20
2019-05-30T14:29:45.491Z,2.13
2019-05-30T14:32:15.288Z,1.60
2019-05-30T14:34:45.109Z,1.80
2019-05-30T14:37:15.018Z,1.20
2019-05-30T14:39:45.241Z,1.60
2019-05-30T14:42:15.252Z,1.53
2019-05-30T14:44:45.267Z,2.30
2019-05-30T14:47:16.888Z,1.70
2019-05-30T14:49:47.558Z,1.83
2019-05-30T14:52:17.973Z,1.50
2019-05-30T14:54:48.105Z,1.83
2019-05-30T14:57:20.886Z,2.03
2019-05-30T14:59:50.795Z,1.57
2019-05-30T15:02:21.637Z,2.07
2019-05-30T15:04:53.292Z,1.57
2019-05-30T15:07:24.843Z,1.33
2019-05-30T15:09:55.163Z,1.97
2019-05-30T15:12:27.150Z,1.40
2019-05-30T15:14:58.591Z,1.60
2019-05-30T15:17:29.330Z,2.20
2019-05-30T15:19:59.634Z,1.50
2019-05-30T15:22:30.270Z,1.70
2019-05-30T15:25:00.996Z,2.07
2019-05-30T15:27:31.531Z,1.67
2019-05-30T15:30:01.646Z,1.93
2019-05-30T15:32:32.478Z,1.80
2019-05-30T15:35:03.218Z,1.97
2019-05-30T15:37:32.908Z,1.50
2019-05-30T15:40:03.348Z,1.50
2019-05-30T15:42:33.262Z,2.10
2019-05-30T15:45:03.593Z,1.53
2019-05-30T15:47:34.010Z,2.10
2019-05-30T15:50:04.238Z,1.53
2019-05-30T15:52:33.937Z,1.83
2019-05-30T15:55:04.164Z,1.57
2019-05-30T15:57:34.795Z,3.20
2019-05-30T16:00:07.489Z,1.67
2019-05-30T16:02:37.495Z,1.97
2019-05-30T16:05:10.472Z,1.63
2019-05-30T16:07:41.623Z,1.30
2019-05-30T16:10:27.516Z,1.70
2019-05-30T16:12:59.674Z,1.90
2019-05-30T16:15:31.446Z,1.87
2019-05-30T16:18:02.269Z,1.83
2019-05-30T16:20:34.642Z,1.43
2019-05-30T16:23:04.656Z,1.90
2019-05-30T16:25:34.790Z,1.67
2019-05-30T16:28:06.024Z,2.07
2019-05-30T16:30:36.240Z,1.70
2019-05-30T16:33:06.157Z,1.50
2019-05-30T16:35:40.070Z,1.67
2019-05-30T16:38:09.889Z,1.83
2019-05-30T16:40:39.810Z,1.80
2019-05-30T16:43:10.012Z,1.50
2019-05-30T16:45:40.539Z,1.73
2019-05-30T16:48:11.069Z,1.63
2019-05-30T16:50:41.620Z,2.10
2019-05-30T16:53:11.512Z,1.40
2019-05-30T16:55:41.530Z,1.53
2019-05-30T16:58:11.850Z,1.47
2019-05-30T17:00:41.890Z,1.60
2019-05-30T17:03:11.889Z,1.87
2019-05-30T17:05:42.208Z,1.53
2019-05-30T17:08:12.344Z,1.07
2019-05-30T17:10:43.159Z,1.57
2019-05-30T17:13:13.610Z,1.67
2019-05-30T17:15:43.909Z,1.90
2019-05-30T17:18:13.619Z,1.60
2019-05-30T17:20:45.279Z,1.80
2019-05-30T17:23:16.657Z,1.93
2019-05-30T17:25:48.283Z,1.73
2019-05-30T17:28:37.652Z,1.67
2019-05-30T17:31:08.392Z,1.60
2019-05-30T17:33:38.509Z,1.70
2019-05-30T17:36:08.624Z,1.73
2019-05-30T17:38:39.691Z,1.40
2019-05-30T17:41:09.574Z,2.23
2019-05-30T17:43:47.278Z,1.90
2019-05-30T17:46:17.285Z,1.60
2019-05-30T17:48:48.635Z,1.77
2019-05-30T17:51:19.760Z,1.60
2019-05-30T17:53:49.501Z,2.03
2019-05-30T17:56:20.033Z,2.17
2019-05-30T17:58:50.758Z,2.10
2019-05-30T18:01:22.233Z,2.00
2019-05-30T18:03:52.833Z,2.90
2019-05-30T18:06:24.411Z,3.70
2019-05-30T18:08:56.258Z,4.60
2019-05-30T18:11:26.945Z,2.70
2019-05-30T18:13:57.299Z,3.63
2019-05-30T18:16:29.201Z,2.33
2019-05-30T18:19:01.156Z,2.77
2019-05-30T18:21:32.059Z,2.10
2019-05-30T18:24:02.485Z,2.37
2019-05-30T18:26:33.257Z,2.67
2019-05-30T18:29:03.444Z,2.70
2019-05-30T18:31:34.070Z,2.27
2019-05-30T18:34:04.611Z,2.30
2019-05-30T18:36:36.766Z,2.40
2019-05-30T18:39:08.453Z,2.30
2019-05-30T18:41:41.327Z,2.20
2019-05-30T18:44:11.850Z,2.13
2019-05-30T18:46:42.790Z,2.00
2019-05-30T18:49:12.994Z,2.33
2019-05-30T18:51:43.731Z,2.23
2019-05-30T18:54:14.595Z,2.20
2019-05-30T18:56:44.987Z,2.00
2019-05-30T18:59:15.727Z,2.53
2019-05-30T19:01:46.255Z,2.17
2019-05-30T19:04:16.668Z,1.93
2019-05-30T19:06:47.522Z,2.67
2019-05-30T19:09:18.147Z,2.30
2019-05-30T19:11:48.470Z,2.77
2019-05-30T19:14:18.485Z,2.27
2019-05-30T19:16:49.218Z,2.63
2019-05-30T19:19:19.540Z,3.07
2019-05-30T19:21:50.480Z,2.73
2019-05-30T19:24:21.312Z,2.17
2019-05-30T19:26:52.152Z,3.00
2019-05-30T19:29:23.815Z,2.70
2019-05-30T19:31:54.889Z,2.60
2019-05-30T19:34:26.501Z,2.70
2019-05-30T19:36:57.849Z,2.97
2019-05-30T19:39:29.273Z,2.80
2019-05-30T19:42:00.035Z,3.33
2019-05-30T19:44:32.105Z,2.90
2019-05-30T19:47:03.757Z,3.03
2019-05-30T19:49:36.905Z,3.40
2019-05-30T19:52:09.215Z,3.00
2019-05-30T19:54:42.730Z,3.10
2019-05-30T19:57:13.447Z,3.13
2019-05-30T19:59:44.493Z,3.13
2019-05-30T20:02:15.422Z,3.20
2019-05-30T20:04:45.649Z,3.47
2019-05-30T20:07:19.673Z,3.47
2019-05-30T20:10:00.799Z,3.70
2019-05-30T20:12:23.989Z,5.23
2019-05-30T20:14:55.440Z,6.67
2019-05-30T20:17:29.839Z,5.83
2019-05-30T20:20:00.192Z,6.97
2019-05-30T20:22:31.833Z,6.23
2019-05-30T20:25:02.674Z,6.70
2019-05-30T20:27:34.872Z,5.13
2019-05-30T20:30:06.611Z,5.47
2019-05-30T20:32:38.873Z,5.53
2019-05-30T20:35:11.050Z,5.67
2019-05-30T20:37:46.993Z,6.43
2019-05-30T20:40:17.618Z,5.63
2019-05-30T20:42:48.684Z,6.67
2019-05-30T20:45:19.622Z,8.53
2019-05-30T20:47:50.654Z,11.00
2019-05-30T20:50:21.700Z,12.23
2019-05-30T20:52:52.540Z,12.33
2019-05-30T20:55:22.901Z,12.83
2019-05-30T20:57:54.312Z,12.10
2019-05-30T21:00:27.910Z,12.63
2019-05-30T21:02:59.462Z,10.77
2019-05-30T21:05:35.721Z,11.13
2019-05-30T21:08:07.788Z,10.90
2019-05-30T21:10:43.239Z,13.03
2019-05-30T21:13:14.872Z,14.80
2019-05-30T21:15:48.919Z,16.00
2019-05-30T21:18:25.271Z,16.20
2019-05-30T21:21:02.152Z,16.87
2019-05-30T21:23:38.303Z,14.83
2019-05-30T21:26:11.571Z,14.43
2019-05-30T21:28:45.420Z,14.73
2019-05-30T21:31:17.748Z,14.37
2019-05-30T21:33:48.992Z,14.33
2019-05-30T21:36:19.732Z,13.90
2019-05-30T21:38:50.359Z,13.97
2019-05-30T21:41:20.477Z,12.03
2019-05-30T21:43:50.721Z,11.77
2019-05-30T21:46:21.241Z,12.17
2019-05-30T21:48:51.682Z,13.30
2019-05-30T21:51:22.495Z,12.80
2019-05-30T21:53:52.815Z,12.17
2019-05-30T21:56:23.663Z,11.10
2019-05-30T21:58:54.619Z,11.27
2019-05-30T22:01:30.236Z,9.97
2019-05-30T22:04:00.461Z,9.47
2019-05-30T22:06:30.574Z,8.43
2019-05-30T22:09:19.231Z,10.07
2019-05-30T22:11:49.711Z,10.50
2019-05-30T22:14:20.301Z,10.23
2019-05-30T22:16:50.506Z,10.23
2019-05-30T22:19:21.262Z,10.00
2019-05-30T22:21:52.354Z,10.20
2019-05-30T22:24:25.293Z,10.00
2019-05-30T22:26:56.209Z,9.33
2019-05-30T22:29:27.679Z,9.97
2019-05-30T22:32:16.627Z,8.70
2019-05-30T22:34:48.696Z,8.70
2019-05-30T22:37:19.021Z,7.60
2019-05-30T22:39:50.927Z,8.77
2019-05-30T22:42:21.610Z,7.80
2019-05-30T22:44:52.306Z,8.43
2019-05-30T22:47:22.669Z,8.43
2019-05-30T22:49:53.084Z,7.20
2019-05-30T22:52:23.509Z,7.03
2019-05-30T22:54:53.629Z,7.73
2019-05-30T22:57:24.257Z,8.00
2019-05-30T22:59:54.913Z,6.97
2019-05-30T23:02:25.647Z,7.10
2019-05-30T23:04:56.423Z,7.57
2019-05-30T23:07:27.217Z,7.60
2019-05-30T23:09:57.634Z,8.23
2019-05-30T23:12:28.901Z,8.27
2019-05-30T23:14:59.599Z,8.50
2019-05-30T23:17:30.236Z,9.17
2019-05-30T23:20:01.273Z,9.50
2019-05-30T23:22:32.117Z,10.27
2019-05-30T23:25:03.038Z,8.90
2019-05-30T23:27:33.675Z,9.40
2019-05-30T23:30:04.912Z,10.27
2019-05-30T23:32:35.443Z,10.00
2019-05-30T23:35:06.285Z,9.53
2019-05-30T23:37:37.232Z,10.27
2019-05-30T23:40:08.691Z,8.97
2019-05-30T23:42:38.700Z,9.90
2019-05-30T23:45:09.215Z,9.30
2019-05-30T23:47:39.639Z,9.63
2019-05-30T23:50:09.770Z,9.43
2019-05-30T23:52:40.497Z,8.77
2019-05-30T23:55:11.324Z,9.53
2019-05-30T23:57:41.880Z,10.67
